sensor_id;sensor_type;location;lat;lon;timestamp;P1;P2;P0
43479;PMS5003;29067;35.492;-97.520;2022-09-09T00:01:59;7;6;
43479;PMS5003;29067;35.492;-97.520;2022-09-09T00:04:32;8;7;
43479;PMS5003;29067;35.492;-97.520;2022-09-09T00:07:03;7;7;
43479;PMS5003;29067;35.492;-97.520;2022-09-09T00:09:40;9;8;
43479;PMS5003;29067;35.492;-97.520;2022-09-09T00:12:13;9;8;
43479;PMS5003;29067;35.492;-97.520;2022-09-09T00:14:48;6;6;
43479;PMS5003;29067;35.492;-97.520;2022-09-09T00:17:25;7;7;
43479;PMS5003;29067;35.492;-97.520;2022-09-09T00:20:05;9;9;
43479;PMS5003;29067;35.492;-97.520;2022-09-09T00:22:40;8;7;
43479;PMS5003;29067;35.492;-97.520;2022-09-09T00:25:14;7;7;
43479;PMS5003;29067;35.492;-97.520;2022-09-09T00:27:47;7;6;
43479;PMS5003;29067;35.492;-97.520;2022-09-09T00:30:18;8;8;
43479;PMS5003;29067;35.492;-97.520;2022-09-09T00:32:48;7;7;
43479;PMS5003;29067;35.492;-97.520;2022-09-09T00:35:22;7;7;
43479;PMS5003;29067;35.492;-97.520;2022-09-09T00:37:54;8;7;
43479;PMS5003;29067;35.492;-97.520;2022-09-09T00:40:28;8;7;
43479;PMS5003;29067;35.492;-97.520;2022-09-09T00:43:05;8;8;
43479;PMS5003;29067;35.492;-97.520;2022-09-09T00:45:52;9;9;
43479;PMS5003;29067;35.492;-97.520;2022-09-09T00:48:40;12;11;
43479;PMS5003;29067;35.492;-97.520;2022-09-09T00:51:17;9;9;
43479;PMS5003;29067;35.492;-97.520;2022-09-09T00:53:58;10;10;
43479;PMS5003;29067;35.492;-97.520;2022-09-09T00:56:41;12;12;
43479;PMS5003;29067;35.492;-97.520;2022-09-09T00:59:21;15;15;
43479;PMS5003;29067;35.492;-97.520;2022-09-09T01:01:55;13;13;
43479;PMS5003;29067;35.492;-97.520;2022-09-09T01:04:27;8;8;
43479;PMS5003;29067;35.492;-97.520;2022-09-09T01:07:02;8;8;
43479;PMS5003;29067;35.492;-97.520;2022-09-09T01:09:42;8;8;
43479;PMS5003;29067;35.492;-97.520;2022-09-09T01:12:25;8;8;
43479;PMS5003;29067;35.492;-97.520;2022-09-09T01:15:08;6;6;
43479;PMS5003;29067;35.492;-97.520;2022-09-09T01:17:44;7;7;
43479;PMS5003;29067;35.492;-97.520;2022-09-09T01:20:18;9;8;
43479;PMS5003;29067;35.492;-97.520;2022-09-09T01:22:55;8;7;
43479;PMS5003;29067;35.492;-97.520;2022-09-09T01:26:13;8;8;
43479;PMS5003;29067;35.492;-97.520;2022-09-09T01:28:46;9;9;
43479;PMS5003;29067;35.492;-97.520;2022-09-09T01:31:17;14;14;
43479;PMS5003;29067;35.492;-97.520;2022-09-09T01:33:47;12;12;
43479;PMS5003;29067;35.492;-97.520;2022-09-09T01:36:17;15;14;
43479;PMS5003;29067;35.492;-97.520;2022-09-09T01:38:52;12;12;
43479;PMS5003;29067;35.492;-97.520;2022-09-09T01:41:20;14;14;
43479;PMS5003;29067;35.492;-97.520;2022-09-09T01:43:48;11;11;
43479;PMS5003;29067;35.492;-97.520;2022-09-09T01:46:17;12;12;
43479;PMS5003;29067;35.492;-97.520;2022-09-09T01:48:49;10;10;
43479;PMS5003;29067;35.492;-97.520;2022-09-09T01:51:18;9;9;
43479;PMS5003;29067;35.492;-97.520;2022-09-09T01:53:46;10;10;
43479;PMS5003;29067;35.492;-97.520;2022-09-09T01:56:19;11;10;
43479;PMS5003;29067;35.492;-97.520;2022-09-09T01:59:03;9;9;
43479;PMS5003;29067;35.492;-97.520;2022-09-09T02:01:46;10;10;
43479;PMS5003;29067;35.492;-97.520;2022-09-09T02:04:29;9;9;
43479;PMS5003;29067;35.492;-97.520;2022-09-09T02:07:06;10;8;
43479;PMS5003;29067;35.492;-97.520;2022-09-09T02:09:42;11;10;
43479;PMS5003;29067;35.492;-97.520;2022-09-09T02:12:17;10;9;
43479;PMS5003;29067;35.492;-97.520;2022-09-09T02:14:50;10;10;
43479;PMS5003;29067;35.492;-97.520;2022-09-09T02:17:24;10;10;
43479;PMS5003;29067;35.492;-97.520;2022-09-09T02:19:56;10;9;
43479;PMS5003;29067;35.492;-97.520;2022-09-09T02:22:30;10;9;
43479;PMS5003;29067;35.492;-97.520;2022-09-09T02:25:00;8;8;
43479;PMS5003;29067;35.492;-97.520;2022-09-09T02:27:30;7;7;
43479;PMS5003;29067;35.492;-97.520;2022-09-09T02:29:59;8;8;
43479;PMS5003;29067;35.492;-97.520;2022-09-09T02:32:29;6;6;
43479;PMS5003;29067;35.492;-97.520;2022-09-09T02:35:02;8;8;
43479;PMS5003;29067;35.492;-97.520;2022-09-09T02:37:34;9;9;
43479;PMS5003;29067;35.492;-97.520;2022-09-09T02:40:05;9;8;
43479;PMS5003;29067;35.492;-97.520;2022-09-09T02:42:38;10;10;
43479;PMS5003;29067;35.492;-97.520;2022-09-09T02:45:07;7;7;
43479;PMS5003;29067;35.492;-97.520;2022-09-09T02:47:37;8;8;
43479;PMS5003;29067;35.492;-97.520;2022-09-09T02:50:11;8;8;
43479;PMS5003;29067;35.492;-97.520;2022-09-09T02:52:46;9;9;
43479;PMS5003;29067;35.492;-97.520;2022-09-09T02:55:23;7;7;
43479;PMS5003;29067;35.492;-97.520;2022-09-09T02:57:58;9;9;
43479;PMS5003;29067;35.492;-97.520;2022-09-09T03:00:28;9;9;
43479;PMS5003;29067;35.492;-97.520;2022-09-09T03:02:56;8;8;
43479;PMS5003;29067;35.492;-97.520;2022-09-09T03:05:24;9;9;
43479;PMS5003;29067;35.492;-97.520;2022-09-09T03:07:52;12;11;
43479;PMS5003;29067;35.492;-97.520;2022-09-09T03:10:20;11;10;
43479;PMS5003;29067;35.492;-97.520;2022-09-09T03:12:47;9;8;
43479;PMS5003;29067;35.492;-97.520;2022-09-09T03:15:16;11;11;
43479;PMS5003;29067;35.492;-97.520;2022-09-09T03:17:44;10;9;
43479;PMS5003;29067;35.492;-97.520;2022-09-09T03:20:11;9;9;
43479;PMS5003;29067;35.492;-97.520;2022-09-09T03:22:40;7;7;
43479;PMS5003;29067;35.492;-97.520;2022-09-09T03:25:08;10;9;
43479;PMS5003;29067;35.492;-97.520;2022-09-09T03:27:37;8;8;
43479;PMS5003;29067;35.492;-97.520;2022-09-09T03:30:04;8;8;
43479;PMS5003;29067;35.492;-97.520;2022-09-09T03:32:33;9;9;
43479;PMS5003;29067;35.492;-97.520;2022-09-09T03:35:00;10;9;
43479;PMS5003;29067;35.492;-97.520;2022-09-09T03:37:29;9;9;
43479;PMS5003;29067;35.492;-97.520;2022-09-09T03:39:56;12;11;
43479;PMS5003;29067;35.492;-97.520;2022-09-09T03:42:24;9;9;
43479;PMS5003;29067;35.492;-97.520;2022-09-09T03:44:51;11;11;
43479;PMS5003;29067;35.492;-97.520;2022-09-09T03:47:19;10;10;
43479;PMS5003;29067;35.492;-97.520;2022-09-09T03:49:47;11;11;
43479;PMS5003;29067;35.492;-97.520;2022-09-09T03:52:16;9;8;
43479;PMS5003;29067;35.492;-97.520;2022-09-09T03:54:44;9;9;
43479;PMS5003;29067;35.492;-97.520;2022-09-09T03:57:11;10;10;
43479;PMS5003;29067;35.492;-97.520;2022-09-09T03:59:39;10;10;
43479;PMS5003;29067;35.492;-97.520;2022-09-09T04:02:07;11;11;
43479;PMS5003;29067;35.492;-97.520;2022-09-09T04:04:34;10;10;
43479;PMS5003;29067;35.492;-97.520;2022-09-09T04:07:02;11;11;
43479;PMS5003;29067;35.492;-97.520;2022-09-09T04:09:30;8;8;
43479;PMS5003;29067;35.492;-97.520;2022-09-09T04:11:58;9;9;
43479;PMS5003;29067;35.492;-97.520;2022-09-09T04:14:26;9;8;
43479;PMS5003;29067;35.492;-97.520;2022-09-09T04:16:53;11;10;
43479;PMS5003;29067;35.492;-97.520;2022-09-09T04:19:22;11;11;
43479;PMS5003;29067;35.492;-97.520;2022-09-09T04:21:50;10;9;
43479;PMS5003;29067;35.492;-97.520;2022-09-09T04:24:19;7;7;
43479;PMS5003;29067;35.492;-97.520;2022-09-09T04:26:48;10;10;
43479;PMS5003;29067;35.492;-97.520;2022-09-09T04:29:16;10;10;
43479;PMS5003;29067;35.492;-97.520;2022-09-09T04:31:44;10;10;
43479;PMS5003;29067;35.492;-97.520;2022-09-09T04:34:11;10;9;
43479;PMS5003;29067;35.492;-97.520;2022-09-09T04:36:39;11;11;
43479;PMS5003;29067;35.492;-97.520;2022-09-09T04:39:07;10;10;
43479;PMS5003;29067;35.492;-97.520;2022-09-09T04:41:34;8;8;
43479;PMS5003;29067;35.492;-97.520;2022-09-09T04:44:02;10;10;
43479;PMS5003;29067;35.492;-97.520;2022-09-09T04:46:30;11;11;
43479;PMS5003;29067;35.492;-97.520;2022-09-09T04:48:57;10;10;
43479;PMS5003;29067;35.492;-97.520;2022-09-09T04:51:25;11;11;
43479;PMS5003;29067;35.492;-97.520;2022-09-09T04:53:52;13;12;
43479;PMS5003;29067;35.492;-97.520;2022-09-09T04:56:20;10;10;
43479;PMS5003;29067;35.492;-97.520;2022-09-09T04:58:48;12;11;
43479;PMS5003;29067;35.492;-97.520;2022-09-09T05:01:16;10;10;
43479;PMS5003;29067;35.492;-97.520;2022-09-09T05:03:45;11;11;
43479;PMS5003;29067;35.492;-97.520;2022-09-09T05:06:13;11;11;
43479;PMS5003;29067;35.492;-97.520;2022-09-09T05:08:43;9;9;
43479;PMS5003;29067;35.492;-97.520;2022-09-09T05:11:13;12;11;
43479;PMS5003;29067;35.492;-97.520;2022-09-09T05:13:42;9;9;
43479;PMS5003;29067;35.492;-97.520;2022-09-09T05:16:11;11;11;
43479;PMS5003;29067;35.492;-97.520;2022-09-09T05:18:39;10;10;
43479;PMS5003;29067;35.492;-97.520;2022-09-09T05:21:07;11;10;
43479;PMS5003;29067;35.492;-97.520;2022-09-09T05:23:36;9;9;
43479;PMS5003;29067;35.492;-97.520;2022-09-09T05:26:05;10;10;
43479;PMS5003;29067;35.492;-97.520;2022-09-09T05:28:37;12;11;
43479;PMS5003;29067;35.492;-97.520;2022-09-09T05:31:06;9;9;
43479;PMS5003;29067;35.492;-97.520;2022-09-09T05:33:35;8;8;
43479;PMS5003;29067;35.492;-97.520;2022-09-09T05:36:05;10;9;
43479;PMS5003;29067;35.492;-97.520;2022-09-09T05:38:34;10;10;
43479;PMS5003;29067;35.492;-97.520;2022-09-09T05:41:03;9;9;
43479;PMS5003;29067;35.492;-97.520;2022-09-09T05:43:31;11;10;
43479;PMS5003;29067;35.492;-97.520;2022-09-09T05:46:00;8;8;
43479;PMS5003;29067;35.492;-97.520;2022-09-09T05:48:29;8;8;
43479;PMS5003;29067;35.492;-97.520;2022-09-09T05:50:59;9;8;
43479;PMS5003;29067;35.492;-97.520;2022-09-09T05:53:27;9;8;
43479;PMS5003;29067;35.492;-97.520;2022-09-09T05:55:58;9;9;
43479;PMS5003;29067;35.492;-97.520;2022-09-09T05:58:27;10;10;
43479;PMS5003;29067;35.492;-97.520;2022-09-09T06:01:03;9;8;
43479;PMS5003;29067;35.492;-97.520;2022-09-09T06:03:33;12;11;
43479;PMS5003;29067;35.492;-97.520;2022-09-09T06:06:04;8;8;
43479;PMS5003;29067;35.492;-97.520;2022-09-09T06:08:34;10;10;
43479;PMS5003;29067;35.492;-97.520;2022-09-09T06:11:05;12;12;
43479;PMS5003;29067;35.492;-97.520;2022-09-09T06:13:34;11;11;
43479;PMS5003;29067;35.492;-97.520;2022-09-09T06:16:03;11;10;
43479;PMS5003;29067;35.492;-97.520;2022-09-09T06:18:31;9;8;
43479;PMS5003;29067;35.492;-97.520;2022-09-09T06:21:00;12;12;
43479;PMS5003;29067;35.492;-97.520;2022-09-09T06:23:30;12;12;
43479;PMS5003;29067;35.492;-97.520;2022-09-09T06:26:02;13;12;
43479;PMS5003;29067;35.492;-97.520;2022-09-09T06:28:32;13;13;
43479;PMS5003;29067;35.492;-97.520;2022-09-09T06:31:01;10;10;
43479;PMS5003;29067;35.492;-97.520;2022-09-09T06:33:31;12;11;
43479;PMS5003;29067;35.492;-97.520;2022-09-09T06:36:00;10;10;
43479;PMS5003;29067;35.492;-97.520;2022-09-09T06:38:29;11;11;
43479;PMS5003;29067;35.492;-97.520;2022-09-09T06:40:58;10;10;
43479;PMS5003;29067;35.492;-97.520;2022-09-09T06:43:26;12;10;
43479;PMS5003;29067;35.492;-97.520;2022-09-09T06:45:54;10;10;
43479;PMS5003;29067;35.492;-97.520;2022-09-09T06:48:23;13;13;
43479;PMS5003;29067;35.492;-97.520;2022-09-09T06:50:51;10;10;
43479;PMS5003;29067;35.492;-97.520;2022-09-09T06:53:27;13;13;
43479;PMS5003;29067;35.492;-97.520;2022-09-09T06:55:55;12;11;
43479;PMS5003;29067;35.492;-97.520;2022-09-09T06:58:23;12;12;
43479;PMS5003;29067;35.492;-97.520;2022-09-09T07:00:50;10;10;
43479;PMS5003;29067;35.492;-97.520;2022-09-09T07:03:18;12;12;
43479;PMS5003;29067;35.492;-97.520;2022-09-09T07:05:53;12;12;
43479;PMS5003;29067;35.492;-97.520;2022-09-09T07:08:21;10;10;
43479;PMS5003;29067;35.492;-97.520;2022-09-09T07:10:50;13;11;
43479;PMS5003;29067;35.492;-97.520;2022-09-09T07:13:18;14;14;
43479;PMS5003;29067;35.492;-97.520;2022-09-09T07:15:47;12;11;
43479;PMS5003;29067;35.492;-97.520;2022-09-09T07:18:15;11;11;
43479;PMS5003;29067;35.492;-97.520;2022-09-09T07:20:42;13;13;
43479;PMS5003;29067;35.492;-97.520;2022-09-09T07:23:19;14;13;
43479;PMS5003;29067;35.492;-97.520;2022-09-09T07:25:46;10;10;
43479;PMS5003;29067;35.492;-97.520;2022-09-09T07:28:14;13;13;
43479;PMS5003;29067;35.492;-97.520;2022-09-09T07:30:43;12;12;
43479;PMS5003;29067;35.492;-97.520;2022-09-09T07:33:11;11;11;
43479;PMS5003;29067;35.492;-97.520;2022-09-09T07:35:39;13;13;
43479;PMS5003;29067;35.492;-97.520;2022-09-09T07:38:07;11;11;
43479;PMS5003;29067;35.492;-97.520;2022-09-09T07:40:34;10;10;
43479;PMS5003;29067;35.492;-97.520;2022-09-09T07:43:02;11;11;
43479;PMS5003;29067;35.492;-97.520;2022-09-09T07:45:29;13;12;
43479;PMS5003;29067;35.492;-97.520;2022-09-09T07:47:57;10;10;
43479;PMS5003;29067;35.492;-97.520;2022-09-09T07:50:25;11;10;
43479;PMS5003;29067;35.492;-97.520;2022-09-09T07:52:53;13;12;
43479;PMS5003;29067;35.492;-97.520;2022-09-09T07:55:22;12;12;
43479;PMS5003;29067;35.492;-97.520;2022-09-09T07:57:50;14;13;
43479;PMS5003;29067;35.492;-97.520;2022-09-09T08:00:17;11;11;
43479;PMS5003;29067;35.492;-97.520;2022-09-09T08:02:46;13;9;
43479;PMS5003;29067;35.492;-97.520;2022-09-09T08:05:13;14;12;
43479;PMS5003;29067;35.492;-97.520;2022-09-09T08:07:42;10;10;
43479;PMS5003;29067;35.492;-97.520;2022-09-09T08:10:09;11;11;
43479;PMS5003;29067;35.492;-97.520;2022-09-09T08:12:37;12;12;
43479;PMS5003;29067;35.492;-97.520;2022-09-09T08:15:05;10;10;
43479;PMS5003;29067;35.492;-97.520;2022-09-09T08:17:34;9;9;
43479;PMS5003;29067;35.492;-97.520;2022-09-09T08:20:01;11;11;
43479;PMS5003;29067;35.492;-97.520;2022-09-09T08:22:29;10;10;
43479;PMS5003;29067;35.492;-97.520;2022-09-09T08:24:57;8;8;
43479;PMS5003;29067;35.492;-97.520;2022-09-09T08:27:25;11;11;
43479;PMS5003;29067;35.492;-97.520;2022-09-09T08:29:52;12;12;
43479;PMS5003;29067;35.492;-97.520;2022-09-09T08:32:20;13;12;
43479;PMS5003;29067;35.492;-97.520;2022-09-09T08:34:49;9;9;
43479;PMS5003;29067;35.492;-97.520;2022-09-09T08:37:17;9;9;
43479;PMS5003;29067;35.492;-97.520;2022-09-09T08:39:44;10;10;
43479;PMS5003;29067;35.492;-97.520;2022-09-09T08:42:16;10;10;
43479;PMS5003;29067;35.492;-97.520;2022-09-09T08:45:02;11;10;
43479;PMS5003;29067;35.492;-97.520;2022-09-09T08:47:47;11;10;
43479;PMS5003;29067;35.492;-97.520;2022-09-09T08:50:22;9;9;
43479;PMS5003;29067;35.492;-97.520;2022-09-09T08:52:54;10;10;
43479;PMS5003;29067;35.492;-97.520;2022-09-09T08:55:34;12;11;
43479;PMS5003;29067;35.492;-97.520;2022-09-09T08:58:10;9;9;
43479;PMS5003;29067;35.492;-97.520;2022-09-09T09:00:42;11;10;
43479;PMS5003;29067;35.492;-97.520;2022-09-09T09:03:25;8;8;
43479;PMS5003;29067;35.492;-97.520;2022-09-09T09:06:04;10;9;
43479;PMS5003;29067;35.492;-97.520;2022-09-09T09:08:43;8;8;
43479;PMS5003;29067;35.492;-97.520;2022-09-09T09:11:18;11;11;
43479;PMS5003;29067;35.492;-97.520;2022-09-09T09:13:47;9;9;
43479;PMS5003;29067;35.492;-97.520;2022-09-09T09:16:23;10;10;
43479;PMS5003;29067;35.492;-97.520;2022-09-09T09:18:59;9;9;
43479;PMS5003;29067;35.492;-97.520;2022-09-09T09:21:29;10;9;
43479;PMS5003;29067;35.492;-97.520;2022-09-09T09:24:03;12;11;
43479;PMS5003;29067;35.492;-97.520;2022-09-09T09:26:43;10;10;
43479;PMS5003;29067;35.492;-97.520;2022-09-09T09:29:12;10;10;
43479;PMS5003;29067;35.492;-97.520;2022-09-09T09:31:43;10;10;
43479;PMS5003;29067;35.492;-97.520;2022-09-09T09:34:14;10;9;
43479;PMS5003;29067;35.492;-97.520;2022-09-09T09:36:43;9;9;
43479;PMS5003;29067;35.492;-97.520;2022-09-09T09:39:22;8;8;
43479;PMS5003;29067;35.492;-97.520;2022-09-09T09:41:52;11;10;
43479;PMS5003;29067;35.492;-97.520;2022-09-09T09:44:23;10;10;
43479;PMS5003;29067;35.492;-97.520;2022-09-09T09:46:52;12;12;
43479;PMS5003;29067;35.492;-97.520;2022-09-09T09:49:32;10;10;
43479;PMS5003;29067;35.492;-97.520;2022-09-09T09:52:00;9;9;
43479;PMS5003;29067;35.492;-97.520;2022-09-09T09:54:29;8;8;
43479;PMS5003;29067;35.492;-97.520;2022-09-09T09:57:07;9;9;
43479;PMS5003;29067;35.492;-97.520;2022-09-09T09:59:37;12;11;
43479;PMS5003;29067;35.492;-97.520;2022-09-09T10:02:10;10;10;
43479;PMS5003;29067;35.492;-97.520;2022-09-09T10:04:42;11;11;
43479;PMS5003;29067;35.492;-97.520;2022-09-09T10:07:11;11;10;
43479;PMS5003;29067;35.492;-97.520;2022-09-09T10:09:40;10;9;
43479;PMS5003;29067;35.492;-97.520;2022-09-09T10:12:12;8;8;
43479;PMS5003;29067;35.492;-97.520;2022-09-09T10:14:52;11;11;
43479;PMS5003;29067;35.492;-97.520;2022-09-09T10:17:29;9;9;
43479;PMS5003;29067;35.492;-97.520;2022-09-09T10:20:12;9;9;
43479;PMS5003;29067;35.492;-97.520;2022-09-09T10:22:50;10;10;
43479;PMS5003;29067;35.492;-97.520;2022-09-09T10:25:26;9;9;
43479;PMS5003;29067;35.492;-97.520;2022-09-09T10:28:23;9;9;
43479;PMS5003;29067;35.492;-97.520;2022-09-09T10:31:02;8;8;
43479;PMS5003;29067;35.492;-97.520;2022-09-09T10:33:41;10;10;
43479;PMS5003;29067;35.492;-97.520;2022-09-09T10:36:18;10;10;
43479;PMS5003;29067;35.492;-97.520;2022-09-09T10:38:52;8;8;
43479;PMS5003;29067;35.492;-97.520;2022-09-09T10:41:31;9;9;
43479;PMS5003;29067;35.492;-97.520;2022-09-09T10:44:15;9;9;
43479;PMS5003;29067;35.492;-97.520;2022-09-09T10:46:58;11;11;
43479;PMS5003;29067;35.492;-97.520;2022-09-09T10:49:52;10;10;
43479;PMS5003;29067;35.492;-97.520;2022-09-09T10:52:36;11;11;
43479;PMS5003;29067;35.492;-97.520;2022-09-09T10:55:12;11;10;
43479;PMS5003;29067;35.492;-97.520;2022-09-09T10:57:43;10;10;
43479;PMS5003;29067;35.492;-97.520;2022-09-09T11:03:01;12;11;
43479;PMS5003;29067;35.492;-97.520;2022-09-09T11:05:30;10;10;
43479;PMS5003;29067;35.492;-97.520;2022-09-09T11:08:04;10;10;
43479;PMS5003;29067;35.492;-97.520;2022-09-09T11:10:38;8;8;
43479;PMS5003;29067;35.492;-97.520;2022-09-09T11:13:10;9;9;
43479;PMS5003;29067;35.492;-97.520;2022-09-09T11:15:42;12;9;
43479;PMS5003;29067;35.492;-97.520;2022-09-09T11:18:17;8;8;
43479;PMS5003;29067;35.492;-97.520;2022-09-09T11:20:47;14;11;
43479;PMS5003;29067;35.492;-97.520;2022-09-09T11:23:20;9;8;
43479;PMS5003;29067;35.492;-97.520;2022-09-09T11:25:55;9;9;
43479;PMS5003;29067;35.492;-97.520;2022-09-09T11:28:30;10;10;
43479;PMS5003;29067;35.492;-97.520;2022-09-09T11:31:13;8;8;
43479;PMS5003;29067;35.492;-97.520;2022-09-09T11:33:58;11;10;
43479;PMS5003;29067;35.492;-97.520;2022-09-09T11:36:40;10;10;
43479;PMS5003;29067;35.492;-97.520;2022-09-09T11:39:28;10;10;
43479;PMS5003;29067;35.492;-97.520;2022-09-09T11:43:09;12;11;
43479;PMS5003;29067;35.492;-97.520;2022-09-09T11:45:39;9;9;
43479;PMS5003;29067;35.492;-97.520;2022-09-09T11:48:22;9;9;
43479;PMS5003;29067;35.492;-97.520;2022-09-09T11:51:00;11;10;
43479;PMS5003;29067;35.492;-97.520;2022-09-09T11:53:33;8;8;
43479;PMS5003;29067;35.492;-97.520;2022-09-09T11:56:03;10;9;
43479;PMS5003;29067;35.492;-97.520;2022-09-09T11:58:36;10;10;
43479;PMS5003;29067;35.492;-97.520;2022-09-09T12:01:15;10;10;
43479;PMS5003;29067;35.492;-97.520;2022-09-09T12:03:55;11;11;
43479;PMS5003;29067;35.492;-97.520;2022-09-09T12:06:41;12;11;
43479;PMS5003;29067;35.492;-97.520;2022-09-09T12:09:17;9;9;
43479;PMS5003;29067;35.492;-97.520;2022-09-09T12:11:51;10;10;
43479;PMS5003;29067;35.492;-97.520;2022-09-09T12:14:19;11;10;
43479;PMS5003;29067;35.492;-97.520;2022-09-09T12:16:49;10;10;
43479;PMS5003;29067;35.492;-97.520;2022-09-09T12:19:18;8;8;
43479;PMS5003;29067;35.492;-97.520;2022-09-09T12:21:51;10;10;
43479;PMS5003;29067;35.492;-97.520;2022-09-09T12:24:28;10;10;
43479;PMS5003;29067;35.492;-97.520;2022-09-09T12:27:05;12;11;
43479;PMS5003;29067;35.492;-97.520;2022-09-09T12:29:43;11;11;
43479;PMS5003;29067;35.492;-97.520;2022-09-09T12:32:22;12;12;
43479;PMS5003;29067;35.492;-97.520;2022-09-09T12:34:52;11;11;
43479;PMS5003;29067;35.492;-97.520;2022-09-09T12:37:24;11;10;
43479;PMS5003;29067;35.492;-97.520;2022-09-09T12:39:59;11;11;
43479;PMS5003;29067;35.492;-97.520;2022-09-09T12:42:27;10;10;
43479;PMS5003;29067;35.492;-97.520;2022-09-09T12:44:56;11;11;
43479;PMS5003;29067;35.492;-97.520;2022-09-09T12:47:27;11;11;
43479;PMS5003;29067;35.492;-97.520;2022-09-09T12:50:03;11;11;
43479;PMS5003;29067;35.492;-97.520;2022-09-09T12:52:31;12;12;
43479;PMS5003;29067;35.492;-97.520;2022-09-09T12:55:04;13;12;
43479;PMS5003;29067;35.492;-97.520;2022-09-09T12:57:34;9;9;
43479;PMS5003;29067;35.492;-97.520;2022-09-09T13:00:06;10;9;
43479;PMS5003;29067;35.492;-97.520;2022-09-09T13:02:46;11;11;
43479;PMS5003;29067;35.492;-97.520;2022-09-09T13:05:16;12;11;
43479;PMS5003;29067;35.492;-97.520;2022-09-09T13:07:46;11;11;
43479;PMS5003;29067;35.492;-97.520;2022-09-09T13:10:15;12;12;
43479;PMS5003;29067;35.492;-97.520;2022-09-09T13:12:49;11;11;
43479;PMS5003;29067;35.492;-97.520;2022-09-09T13:15:20;13;12;
43479;PMS5003;29067;35.492;-97.520;2022-09-09T13:17:51;12;11;
43479;PMS5003;29067;35.492;-97.520;2022-09-09T13:20:21;11;11;
43479;PMS5003;29067;35.492;-97.520;2022-09-09T13:22:50;13;12;
43479;PMS5003;29067;35.492;-97.520;2022-09-09T13:25:21;12;12;
43479;PMS5003;29067;35.492;-97.520;2022-09-09T13:27:53;10;10;
43479;PMS5003;29067;35.492;-97.520;2022-09-09T13:30:24;10;10;
43479;PMS5003;29067;35.492;-97.520;2022-09-09T13:33:03;11;11;
43479;PMS5003;29067;35.492;-97.520;2022-09-09T13:35:45;11;11;
43479;PMS5003;29067;35.492;-97.520;2022-09-09T13:38:16;10;10;
43479;PMS5003;29067;35.492;-97.520;2022-09-09T13:40:52;11;11;
43479;PMS5003;29067;35.492;-97.520;2022-09-09T13:43:24;11;10;
43479;PMS5003;29067;35.492;-97.520;2022-09-09T13:45:53;11;11;
43479;PMS5003;29067;35.492;-97.520;2022-09-09T13:48:23;12;12;
43479;PMS5003;29067;35.492;-97.520;2022-09-09T13:50:56;14;11;
43479;PMS5003;29067;35.492;-97.520;2022-09-09T13:53:25;14;14;
43479;PMS5003;29067;35.492;-97.520;2022-09-09T13:55:54;13;13;
43479;PMS5003;29067;35.492;-97.520;2022-09-09T13:58:22;13;13;
43479;PMS5003;29067;35.492;-97.520;2022-09-09T14:00:51;12;12;
43479;PMS5003;29067;35.492;-97.520;2022-09-09T14:03:20;10;10;
43479;PMS5003;29067;35.492;-97.520;2022-09-09T14:05:48;11;10;
43479;PMS5003;29067;35.492;-97.520;2022-09-09T14:08:20;11;11;
43479;PMS5003;29067;35.492;-97.520;2022-09-09T14:10:51;11;11;
43479;PMS5003;29067;35.492;-97.520;2022-09-09T14:13:20;13;13;
43479;PMS5003;29067;35.492;-97.520;2022-09-09T14:15:48;14;12;
43479;PMS5003;29067;35.492;-97.520;2022-09-09T14:18:16;10;10;
43479;PMS5003;29067;35.492;-97.520;2022-09-09T14:20:45;13;13;
43479;PMS5003;29067;35.492;-97.520;2022-09-09T14:23:12;13;13;
43479;PMS5003;29067;35.492;-97.520;2022-09-09T14:25:41;11;11;
43479;PMS5003;29067;35.492;-97.520;2022-09-09T14:28:11;12;12;
43479;PMS5003;29067;35.492;-97.520;2022-09-09T14:30:40;14;14;
43479;PMS5003;29067;35.492;-97.520;2022-09-09T14:33:10;13;13;
43479;PMS5003;29067;35.492;-97.520;2022-09-09T14:35:39;13;13;
43479;PMS5003;29067;35.492;-97.520;2022-09-09T14:38:08;11;11;
43479;PMS5003;29067;35.492;-97.520;2022-09-09T14:40:37;11;11;
43479;PMS5003;29067;35.492;-97.520;2022-09-09T14:43:06;12;11;
43479;PMS5003;29067;35.492;-97.520;2022-09-09T14:45:37;10;10;
43479;PMS5003;29067;35.492;-97.520;2022-09-09T14:48:05;12;12;
43479;PMS5003;29067;35.492;-97.520;2022-09-09T14:50:32;11;11;
43479;PMS5003;29067;35.492;-97.520;2022-09-09T14:53:01;13;12;
43479;PMS5003;29067;35.492;-97.520;2022-09-09T14:55:28;11;10;
43479;PMS5003;29067;35.492;-97.520;2022-09-09T14:57:56;12;10;
43479;PMS5003;29067;35.492;-97.520;2022-09-09T15:00:23;12;12;
43479;PMS5003;29067;35.492;-97.520;2022-09-09T15:02:52;14;12;
43479;PMS5003;29067;35.492;-97.520;2022-09-09T15:05:20;11;11;
43479;PMS5003;29067;35.492;-97.520;2022-09-09T15:07:48;13;13;
43479;PMS5003;29067;35.492;-97.520;2022-09-09T15:10:16;12;12;
43479;PMS5003;29067;35.492;-97.520;2022-09-09T15:12:44;13;13;
43479;PMS5003;29067;35.492;-97.520;2022-09-09T15:15:12;11;11;
43479;PMS5003;29067;35.492;-97.520;2022-09-09T15:17:40;14;14;
43479;PMS5003;29067;35.492;-97.520;2022-09-09T15:20:08;14;13;
43479;PMS5003;29067;35.492;-97.520;2022-09-09T15:22:36;12;12;
43479;PMS5003;29067;35.492;-97.520;2022-09-09T15:25:04;14;13;
43479;PMS5003;29067;35.492;-97.520;2022-09-09T15:27:32;13;13;
43479;PMS5003;29067;35.492;-97.520;2022-09-09T15:30:00;14;13;
43479;PMS5003;29067;35.492;-97.520;2022-09-09T15:32:28;11;11;
43479;PMS5003;29067;35.492;-97.520;2022-09-09T15:34:55;13;12;
43479;PMS5003;29067;35.492;-97.520;2022-09-09T15:37:23;13;13;
43479;PMS5003;29067;35.492;-97.520;2022-09-09T15:39:50;14;13;
43479;PMS5003;29067;35.492;-97.520;2022-09-09T15:42:18;13;13;
43479;PMS5003;29067;35.492;-97.520;2022-09-09T15:44:46;12;12;
43479;PMS5003;29067;35.492;-97.520;2022-09-09T15:47:14;12;11;
43479;PMS5003;29067;35.492;-97.520;2022-09-09T15:49:43;14;13;
43479;PMS5003;29067;35.492;-97.520;2022-09-09T15:52:10;13;13;
43479;PMS5003;29067;35.492;-97.520;2022-09-09T15:54:38;13;13;
43479;PMS5003;29067;35.492;-97.520;2022-09-09T15:57:06;13;13;
43479;PMS5003;29067;35.492;-97.520;2022-09-09T15:59:37;12;11;
43479;PMS5003;29067;35.492;-97.520;2022-09-09T16:02:05;14;13;
43479;PMS5003;29067;35.492;-97.520;2022-09-09T16:04:33;13;13;
43479;PMS5003;29067;35.492;-97.520;2022-09-09T16:07:02;12;12;
43479;PMS5003;29067;35.492;-97.520;2022-09-09T16:09:30;20;20;
43479;PMS5003;29067;35.492;-97.520;2022-09-09T16:12:00;19;19;
43479;PMS5003;29067;35.492;-97.520;2022-09-09T16:14:29;14;13;
43479;PMS5003;29067;35.492;-97.520;2022-09-09T16:16:57;13;13;
43479;PMS5003;29067;35.492;-97.520;2022-09-09T16:19:25;13;12;
43479;PMS5003;29067;35.492;-97.520;2022-09-09T16:21:52;10;10;
43479;PMS5003;29067;35.492;-97.520;2022-09-09T16:24:20;13;12;
43479;PMS5003;29067;35.492;-97.520;2022-09-09T16:26:48;12;12;
43479;PMS5003;29067;35.492;-97.520;2022-09-09T16:29:18;12;12;